createdAt,value
2022-11-04T07:31:04.641Z,60.973999
2022-11-04T07:32:14.318Z,60.948002
2022-11-04T07:33:22.978Z,61.025002
2022-11-04T07:34:32.623Z,61.091999
2022-11-04T07:35:41.366Z,61.037998
2022-11-04T07:36:50.302Z,61.082001
2022-11-04T07:37:59.024Z,61.18
2022-11-04T07:39:07.635Z,61.160999
2022-11-04T07:40:16.249Z,61.129002
2022-11-04T07:41:24.829Z,60.994999
2022-11-04T07:42:34.474Z,61.042
2022-11-04T07:43:44.058Z,61.106998
2022-11-04T07:44:52.638Z,61.173
2022-11-04T07:46:02.210Z,61.192001
2022-11-04T07:47:10.859Z,61.235001
2022-11-04T07:48:20.395Z,61.220001
2022-11-04T07:49:28.998Z,61.181
2022-11-04T07:50:37.626Z,61.206001
2022-11-04T07:51:47.151Z,61.215
2022-11-04T07:52:53.771Z,61.220001
2022-11-04T07:54:01.370Z,61.25
2022-11-04T07:55:11.016Z,61.241001
2022-11-04T07:56:20.575Z,61.245998
2022-11-04T07:57:29.158Z,61.289001
2022-11-04T07:58:37.790Z,61.275002
2022-11-04T07:59:47.322Z,61.307999
2022-11-04T08:00:56.919Z,61.298
2022-11-04T08:02:05.622Z,61.264999
2022-11-04T08:03:15.192Z,61.261002
2022-11-04T08:04:24.758Z,61.234001
2022-11-04T08:05:34.354Z,61.251999
2022-11-04T08:06:42.930Z,61.255001
2022-11-04T08:07:52.496Z,61.259998
2022-11-04T08:09:01.152Z,61.241001
2022-11-04T08:10:10.637Z,61.278
2022-11-04T08:11:18.257Z,61.25
2022-11-04T08:12:27.751Z,61.273998
2022-11-04T08:13:37.337Z,61.255001
2022-11-04T08:14:46.904Z,61.299
2022-11-04T08:15:55.480Z,61.299
2022-11-04T08:17:03.075Z,61.291
2022-11-04T08:18:11.663Z,61.342999
2022-11-04T08:19:21.289Z,61.331001
2022-11-04T08:20:30.837Z,61.317001
2022-11-04T08:21:38.510Z,61.299999
2022-11-04T08:22:48.142Z,61.293999
2022-11-04T08:23:57.729Z,61.294998
2022-11-04T08:25:07.321Z,61.287998
2022-11-04T08:26:16.987Z,61.299999
2022-11-04T08:27:25.577Z,61.244999
2022-11-04T08:28:35.160Z,61.257999
2022-11-04T08:29:42.847Z,61.282001
2022-11-04T08:30:51.455Z,61.195
2022-11-04T08:32:01.031Z,61.155998
2022-11-04T08:33:10.845Z,61.030998
2022-11-04T08:34:20.192Z,60.938
2022-11-04T08:35:29.122Z,60.868
2022-11-04T08:36:39.740Z,60.839001
2022-11-04T08:37:49.334Z,60.858002
2022-11-04T08:38:56.881Z,60.939999
2022-11-04T08:40:05.487Z,60.984001
2022-11-04T08:41:15.061Z,61.004002
2022-11-04T08:42:23.617Z,61.014999
2022-11-04T08:43:33.211Z,61.001999
2022-11-04T08:44:41.924Z,60.995998
2022-11-04T08:45:50.492Z,61.007
2022-11-04T08:47:00.075Z,61.000999
2022-11-04T08:48:07.937Z,60.909
2022-11-04T08:49:20.945Z,61.014999
2022-11-04T08:50:26.806Z,60.970001
2022-11-04T08:51:35.404Z,60.973
2022-11-04T08:52:43.958Z,60.979
2022-11-04T08:53:52.689Z,60.945999
2022-11-04T08:55:01.698Z,60.965
2022-11-04T08:56:11.271Z,60.952999
2022-11-04T08:57:19.850Z,60.945999
2022-11-04T08:58:28.534Z,60.945
2022-11-04T08:59:38.095Z,60.894001
2022-11-04T09:00:46.659Z,60.868
2022-11-04T09:01:54.271Z,60.884998
2022-11-04T09:03:02.777Z,60.844002
2022-11-04T09:04:11.447Z,60.881001
2022-11-04T09:05:20.930Z,60.700001
2022-11-04T09:06:29.508Z,60.752998
2022-11-04T09:07:39.122Z,60.793999
2022-11-04T09:08:48.714Z,60.756001
2022-11-04T09:09:57.314Z,60.731998
2022-11-04T09:11:05.876Z,60.694
2022-11-04T09:12:14.491Z,60.687
2022-11-04T09:13:23.031Z,60.654999
2022-11-04T09:14:32.623Z,60.66
2022-11-04T09:15:41.193Z,60.653999
2022-11-04T09:16:48.743Z,60.612999
2022-11-04T09:17:58.318Z,60.580002
2022-11-04T09:19:06.932Z,60.567001
2022-11-04T09:20:16.512Z,60.548
2022-11-04T09:21:25.059Z,60.5
2022-11-04T09:22:33.620Z,60.525002
2022-11-04T09:23:44.349Z,60.5
2022-11-04T09:24:52.773Z,60.487999
2022-11-04T09:26:00.342Z,60.441002
2022-11-04T09:27:09.903Z,60.452999
2022-11-04T09:28:18.451Z,60.433998
2022-11-04T09:29:27.057Z,60.459
2022-11-04T09:30:36.626Z,60.327999
2022-11-04T09:31:46.231Z,60.471001
2022-11-04T09:32:54.814Z,60.625999
2022-11-04T09:34:03.425Z,60.714001
2022-11-04T09:35:12.066Z,60.806
2022-11-04T09:36:21.651Z,60.856998
2022-11-04T09:37:29.327Z,60.875999
2022-11-04T09:38:36.919Z,60.994999
2022-11-04T09:39:50.016Z,60.994999
2022-11-04T09:40:57.109Z,60.963001
2022-11-04T09:42:05.691Z,60.962002
2022-11-04T09:43:14.225Z,60.949001
2022-11-04T09:44:22.802Z,60.949001
2022-11-04T09:45:32.375Z,60.907001
2022-11-04T09:46:39.946Z,60.907001
2022-11-04T09:47:47.564Z,60.925999
2022-11-04T09:48:57.119Z,60.971001
2022-11-04T09:50:05.925Z,60.999001
2022-11-04T09:51:26.512Z,60.932999
2022-11-04T09:52:26.042Z,60.689999
2022-11-04T09:53:35.595Z,60.606998
2022-11-04T09:54:47.377Z,60.508999
2022-11-04T09:55:54.132Z,60.474998
2022-11-04T09:57:01.595Z,60.436001
2022-11-04T09:58:11.219Z,60.312
2022-11-04T09:59:19.769Z,60.389999
2022-11-04T10:00:28.321Z,60.396999
2022-11-04T10:01:38.008Z,60.361
2022-11-04T10:02:46.451Z,60.297001
2022-11-04T10:03:56.033Z,60.285
2022-11-04T10:05:03.612Z,60.257
2022-11-04T10:06:11.191Z,60.259998
2022-11-04T10:07:20.742Z,60.241001
2022-11-04T10:08:28.380Z,60.248001
2022-11-04T10:09:38.942Z,60.243999
2022-11-04T10:10:48.502Z,60.212002
2022-11-04T10:11:58.175Z,60.187
2022-11-04T10:13:07.866Z,60.206001
2022-11-04T10:14:16.231Z,60.176998
2022-11-04T10:15:25.783Z,60.145
2022-11-04T10:16:33.358Z,60.094002
2022-11-04T10:17:42.120Z,60.069
2022-11-04T10:18:51.864Z,60.033001
2022-11-04T10:20:01.432Z,60.007999
2022-11-04T10:21:10.017Z,59.976002
2022-11-04T10:22:18.589Z,59.969002
2022-11-04T10:23:27.168Z,59.921001
2022-11-04T10:24:36.769Z,59.882999
2022-11-04T10:25:44.340Z,59.977001
2022-11-04T10:26:56.071Z,59.964001
2022-11-04T10:28:03.546Z,59.943001
2022-11-04T10:29:13.019Z,59.93
2022-11-04T10:30:21.558Z,59.995998
2022-11-04T10:31:30.118Z,60.051998
2022-11-04T10:32:38.670Z,60.064999
2022-11-04T10:33:48.229Z,60.084
2022-11-04T10:34:57.791Z,60.051998
2022-11-04T10:36:06.362Z,60.033001
2022-11-04T10:37:15.908Z,60.027
2022-11-04T10:38:24.466Z,60.004002
2022-11-04T10:39:34.046Z,59.985001
2022-11-04T10:40:43.630Z,59.966
2022-11-04T10:41:52.191Z,59.933998
2022-11-04T10:43:01.763Z,59.905998
2022-11-04T10:44:09.460Z,59.924
2022-11-04T10:45:16.854Z,59.910999
2022-11-04T10:46:26.541Z,59.897999
2022-11-04T10:47:35.122Z,59.896999
2022-11-04T10:48:43.695Z,59.903
2022-11-04T10:50:14.382Z,59.865002
2022-11-04T10:51:01.863Z,59.868
2022-11-04T10:52:11.454Z,59.842999
2022-11-04T10:53:19.022Z,59.817001
2022-11-04T10:54:27.600Z,59.792
2022-11-04T10:55:37.176Z,59.823002
2022-11-04T10:56:45.793Z,59.804001
2022-11-04T10:57:54.281Z,59.792
2022-11-04T10:59:02.878Z,59.804001
2022-11-04T11:00:13.442Z,59.808998
2022-11-04T11:01:23.051Z,59.808998
2022-11-04T11:02:30.619Z,59.762001
2022-11-04T11:03:38.211Z,59.762001
2022-11-04T11:04:47.892Z,59.769001
2022-11-04T11:05:56.430Z,59.769001
2022-11-04T11:07:05.059Z,59.756001
2022-11-04T11:08:13.606Z,59.742001
2022-11-04T11:09:23.176Z,59.723
2022-11-04T11:10:32.750Z,59.716999
2022-11-04T11:11:40.296Z,59.707001
2022-11-04T11:12:51.297Z,59.688
2022-11-04T11:13:59.393Z,59.694
2022-11-04T11:15:12.251Z,59.643002
2022-11-04T11:16:19.251Z,59.660999
2022-11-04T11:17:28.976Z,59.632999
2022-11-04T11:18:36.635Z,59.608002
2022-11-04T11:19:46.224Z,59.598
2022-11-04T11:20:53.785Z,59.566002
2022-11-04T11:22:01.335Z,59.566002
2022-11-04T11:23:11.418Z,59.560001
2022-11-04T11:24:19.542Z,59.577
2022-11-04T11:25:29.155Z,59.530998
2022-11-04T11:26:37.854Z,59.536999
2022-11-04T11:27:46.421Z,59.557999
2022-11-04T11:28:58.983Z,59.546001
2022-11-04T11:30:05.546Z,59.536999
2022-11-04T11:31:13.111Z,59.523998
2022-11-04T11:32:22.698Z,59.518002
2022-11-04T11:33:32.638Z,59.516998
2022-11-04T11:34:41.299Z,59.509998
2022-11-04T11:35:49.869Z,59.504002
2022-11-04T11:36:59.430Z,59.485001
2022-11-04T11:38:08.986Z,59.466
2022-11-04T11:39:16.586Z,59.472
2022-11-04T11:40:24.140Z,59.452999
2022-11-04T11:41:33.703Z,59.438
2022-11-04T11:42:43.300Z,59.438
2022-11-04T11:43:51.926Z,59.446999
2022-11-04T11:45:00.490Z,59.431999
2022-11-04T11:46:09.046Z,59.412998
2022-11-04T11:47:18.618Z,59.416
2022-11-04T11:48:26.215Z,59.403999
2022-11-04T11:49:34.803Z,59.41
2022-11-04T11:50:44.377Z,59.416
2022-11-04T11:51:53.001Z,59.389
2022-11-04T11:53:02.561Z,59.362999
2022-11-04T11:54:11.167Z,59.344002
2022-11-04T11:55:19.742Z,59.348999
2022-11-04T11:56:40.395Z,59.324001
2022-11-04T11:57:39.924Z,59.290001
2022-11-04T12:01:16.647Z,59.220001
2022-11-04T12:02:21.230Z,59.195
2022-11-04T12:03:30.858Z,59.172001
2022-11-04T12:09:23.473Z,59.102001
2022-11-04T12:11:42.518Z,59.061001
2022-11-04T12:12:51.066Z,59.054001
2022-11-04T12:14:00.661Z,59.022999
2022-11-04T12:15:10.258Z,59.015999
2022-11-04T12:16:18.862Z,59.040001
2022-11-04T12:17:28.441Z,59.021
2022-11-04T12:18:36.071Z,59.021
2022-11-04T12:19:43.603Z,59.008999
2022-11-04T12:20:53.216Z,58.987
2022-11-04T12:22:01.843Z,58.974998
2022-11-04T12:23:10.668Z,58.987
2022-11-04T12:24:19.051Z,58.974998
2022-11-04T12:25:27.603Z,58.962002
2022-11-04T12:26:37.197Z,58.937
2022-11-04T12:27:44.798Z,58.937
2022-11-04T12:28:52.376Z,58.910999
2022-11-04T12:30:01.976Z,58.916
2022-11-04T12:31:11.584Z,58.882
2022-11-04T12:32:20.133Z,58.882
2022-11-04T12:33:28.699Z,58.862999
2022-11-04T12:34:38.359Z,58.851002
2022-11-04T12:35:47.919Z,58.844002
2022-11-04T12:36:55.484Z,58.825001
2022-11-04T12:38:03.395Z,58.819
2022-11-04T12:39:12.684Z,58.797001
2022-11-04T12:40:22.279Z,58.827999
2022-11-04T12:41:47.075Z,58.866001
2022-11-04T12:42:42.400Z,58.847
2022-11-04T12:43:52.110Z,58.854
2022-11-04T12:45:01.642Z,58.860001
2022-11-04T12:46:09.211Z,58.884998
2022-11-04T12:47:17.796Z,58.884998
2022-11-04T12:48:27.382Z,58.884998
2022-11-04T12:49:36.033Z,58.894001
2022-11-04T12:50:45.729Z,58.900002
2022-11-04T12:51:55.280Z,58.884998
2022-11-04T12:53:03.887Z,58.900002
2022-11-04T12:54:13.548Z,58.900002
2022-11-04T12:55:21.117Z,58.900002
2022-11-04T12:56:28.703Z,58.912998
2022-11-04T12:57:38.279Z,58.912998
2022-11-04T12:58:46.878Z,58.918999
2022-11-04T12:59:55.469Z,58.931999
2022-11-04T13:01:04.066Z,58.945
2022-11-04T13:02:12.810Z,58.967999
2022-11-04T13:03:22.264Z,58.928001
2022-11-04T13:04:30.870Z,58.950001
2022-11-04T13:05:39.437Z,58.950001
2022-11-04T13:06:49.025Z,58.967999
2022-11-04T13:07:58.633Z,58.962002
2022-11-04T13:09:07.212Z,58.956001
2022-11-04T13:10:15.875Z,58.980999
2022-11-04T13:11:25.460Z,59.110001
2022-11-04T13:12:35.045Z,59.251999
2022-11-04T13:13:41.651Z,59.379002
2022-11-04T13:14:49.255Z,59.488998
2022-11-04T13:15:58.868Z,59.598999
2022-11-04T13:17:08.490Z,59.702999
2022-11-04T13:18:17.065Z,59.772999
2022-11-04T13:19:26.666Z,59.852001
2022-11-04T13:20:35.255Z,59.941002
2022-11-04T13:21:44.904Z,60.044998
2022-11-04T13:22:55.712Z,60.143002
2022-11-04T13:24:03.042Z,60.200001
2022-11-04T13:25:12.609Z,60.27
2022-11-04T13:26:21.248Z,60.341999
2022-11-04T13:27:29.832Z,60.417
2022-11-04T13:28:39.445Z,60.467999
2022-11-04T13:29:48.013Z,60.541
2022-11-04T13:30:57.598Z,60.573002
2022-11-04T13:32:06.172Z,60.632999
2022-11-04T13:33:13.766Z,60.665001
2022-11-04T13:34:23.617Z,60.714001
2022-11-04T13:35:31.968Z,60.758999
2022-11-04T13:36:41.571Z,60.796001
2022-11-04T13:37:50.151Z,60.827999
2022-11-04T13:38:59.765Z,60.865002
2022-11-04T13:40:09.347Z,60.896999
2022-11-04T13:41:21.460Z,60.931
2022-11-04T13:42:26.534Z,60.944
2022-11-04T13:43:36.092Z,60.957001
2022-11-04T13:44:45.659Z,61.143002
2022-11-04T13:45:54.277Z,61.214001
2022-11-04T13:47:02.895Z,61.181999
2022-11-04T13:48:11.465Z,61.155998
2022-11-04T13:49:21.080Z,61.176998
2022-11-04T13:50:28.651Z,61.217999
2022-11-04T13:51:36.216Z,61.223999
2022-11-04T13:52:49.895Z,61.238998
2022-11-04T13:53:56.392Z,61.233002
2022-11-04T13:55:06.001Z,61.233002
2022-11-04T13:56:32.606Z,61.221001
2022-11-04T13:57:25.045Z,61.221001
2022-11-04T13:58:34.634Z,61.215
2022-11-04T13:59:44.394Z,61.228001
2022-11-04T14:00:52.842Z,61.251999
2022-11-04T14:02:02.628Z,61.251999
2022-11-04T14:03:11.439Z,61.444
2022-11-04T14:04:20.667Z,61.409
2022-11-04T14:05:30.230Z,61.376999
2022-11-04T14:06:39.797Z,61.369999
2022-11-04T14:07:48.364Z,61.356998
2022-11-04T14:08:56.948Z,61.382999
2022-11-04T14:10:06.572Z,61.400002
2022-11-04T14:11:14.131Z,61.394001
2022-11-04T14:12:22.652Z,61.400002
2022-11-04T14:13:32.208Z,61.402
2022-11-04T14:14:41.785Z,61.408001
2022-11-04T14:15:51.354Z,61.421001
2022-11-04T14:16:59.925Z,61.408001
2022-11-04T14:18:12.984Z,61.407001
2022-11-04T14:19:19.185Z,61.412998
2022-11-04T14:20:27.774Z,61.425999
2022-11-04T14:21:35.340Z,61.398998
2022-11-04T14:22:44.926Z,61.414001
2022-11-04T14:23:53.491Z,61.393002
2022-11-04T14:25:02.086Z,61.41
2022-11-04T14:26:10.642Z,61.397999
2022-11-04T14:27:20.300Z,61.414001
2022-11-04T14:28:29.883Z,61.452999
2022-11-04T14:29:38.437Z,61.439999
2022-11-04T14:30:47.034Z,61.433998
2022-11-04T14:31:56.665Z,61.483002
2022-11-04T14:33:06.426Z,61.560001
2022-11-04T14:34:15.609Z,61.477001
2022-11-04T14:35:23.459Z,61.48
2022-11-04T14:36:32.020Z,61.48
2022-11-04T14:37:41.597Z,61.459
2022-11-04T14:38:49.186Z,61.484001
2022-11-04T14:39:56.737Z,61.464001
2022-11-04T14:41:06.328Z,61.477001
2022-11-04T14:42:14.911Z,61.473999
2022-11-04T14:43:23.575Z,61.466999
2022-11-04T14:44:33.121Z,61.460999
2022-11-04T14:45:41.613Z,61.472
2022-11-04T14:46:51.221Z,61.455002
2022-11-04T14:47:58.808Z,61.442001
2022-11-04T14:49:08.539Z,61.442001
2022-11-04T14:50:18.222Z,61.446999
2022-11-04T14:51:26.784Z,61.441002
2022-11-04T14:52:35.393Z,61.422001
2022-11-04T14:53:44.065Z,61.431
2022-11-04T14:54:52.660Z,61.431
2022-11-04T14:56:02.250Z,61.424999
2022-11-04T14:57:10.864Z,61.423
2022-11-04T14:58:18.493Z,61.423
2022-11-04T14:59:28.162Z,61.423
2022-11-04T15:00:37.761Z,60.919998
2022-11-04T15:01:46.424Z,59.617001
2022-11-04T15:02:54.955Z,59.049
2022-11-04T15:04:13.250Z,58.787998
